Terminal Aerodrome Forecast
Issued by NWS

Home | Current Version | Previous Version | Text Only | Print | Product List | Glossary On
Versions: 1 2 3 4 5 6 7 8 9 10 11 12 13 14
000
FTUS43 KEAX 250500
TAFSTJ
TAF
KSTJ 250520Z 2506/2606 14011KT P6SM -SHRA VCTS BKN035CB
      TEMPO 2506/2510 6SM -TSRA BKN025CB
     FM251000 09009KT P6SM VCSH OVC015
     FM251700 02010KT P6SM BKN015=

USA.gov is the U.S. government's official web portal to all federal, state and local government web resources and services.